Time;durP1;ratioP1;P1;durP2;ratioP2;P2;SDS_P1;SDS_P2;PMS_P1;PMS_P2;Temp;Humidity;BMP_temperature;BMP_pressure;BME280_temperature;BME280_humidity;BME280_pressure;Samples;Min_cycle;Max_cycle;Signal;HPM_P1;HPM_P2
2022/05/05 00:01:35;;;;;;;5.27;3.80;;;;;;;;;;5030656;28;20200;-36
2022/05/05 00:04:02;;;;;;;4.47;4.07;;;;;;;;;;5028445;28;20209;-36
2022/05/05 00:06:30;;;;;;;7.13;4.53;;;;;;;;;;5021482;28;20223;-37
2022/05/05 00:08:57;;;;;;;4.73;3.90;;;;;;;;;;5014592;28;20203;-40
2022/05/05 00:14:27;;;;;;;4.00;3.70;;;;;;;;;;5026112;28;20267;-36
2022/05/05 00:16:56;;;;;;;4.17;3.80;;;;;;;;;;5033372;28;20233;-37
2022/05/05 00:19:23;;;;;;;5.83;4.03;;;;;;;;;;5031136;28;20212;-31
2022/05/05 00:21:50;;;;;;;4.53;4.13;;;;;;;;;;5022301;28;20242;-41
2022/05/05 00:24:17;;;;;;;4.90;4.43;;;;;;;;;;5019067;28;20250;-41
2022/05/05 00:26:44;;;;;;;4.60;4.20;;;;;;;;;;5017690;28;20232;-36
2022/05/05 00:29:13;;;;;;;4.17;3.73;;;;;;;;;;5021256;28;20208;-38
2022/05/05 00:31:40;;;;;;;4.70;4.30;;;;;;;;;;5013199;28;20200;-34
2022/05/05 00:34:07;;;;;;;5.20;4.17;;;;;;;;;;5026688;28;20645;-34
2022/05/05 00:36:35;;;;;;;4.33;3.93;;;;;;;;;;5020706;28;20227;-35
2022/05/05 00:39:02;;;;;;;4.93;4.40;;;;;;;;;;5013619;28;20199;-34
2022/05/05 00:41:32;;;;;;;5.37;4.73;;;;;;;;;;5012339;28;20200;-38
2022/05/05 00:43:59;;;;;;;4.90;4.50;;;;;;;;;;5019329;28;20195;-39
2022/05/05 00:46:28;;;;;;;3.90;3.60;;;;;;;;;;5032888;28;20226;-38
2022/05/05 00:48:55;;;;;;;5.03;4.43;;;;;;;;;;5033186;28;20221;-37
2022/05/05 00:51:23;;;;;;;5.67;4.40;;;;;;;;;;5022092;28;20250;-33
2022/05/05 00:53:50;;;;;;;4.47;4.07;;;;;;;;;;5017498;28;20243;-35
2022/05/05 00:56:17;;;;;;;4.80;4.40;;;;;;;;;;5020903;28;20223;-37
2022/05/05 00:58:45;;;;;;;5.93;4.60;;;;;;;;;;5030884;28;20215;-39
2022/05/05 01:01:15;;;;;;;4.20;3.90;;;;;;;;;;5016763;28;20383;-38
2022/05/05 01:03:45;;;;;;;4.67;4.10;;;;;;;;;;5016346;28;20207;-37
2022/05/05 01:06:13;;;;;;;4.40;4.00;;;;;;;;;;5026594;28;20226;-37
2022/05/05 01:08:40;;;;;;;4.13;3.83;;;;;;;;;;5031906;28;20207;-38
2022/05/05 01:11:08;;;;;;;6.83;4.30;;;;;;;;;;5022128;28;20286;-39
2022/05/05 01:13:38;;;;;;;4.93;4.47;;;;;;;;;;5024995;28;20261;-39
2022/05/05 01:16:06;;;;;;;4.10;3.80;;;;;;;;;;5032627;28;20218;-33
2022/05/05 01:18:33;;;;;;;4.83;4.43;;;;;;;;;;5032956;28;20210;-41
2022/05/05 01:21:02;;;;;;;4.57;4.03;;;;;;;;;;5022468;28;20211;-32
2022/05/05 01:23:31;;;;;;;4.70;4.30;;;;;;;;;;5022890;28;20203;-40
2022/05/05 01:28:45;;;;;;;4.10;3.80;;;;;;;;;;5022595;28;20254;-36
2022/05/05 01:31:13;;;;;;;5.50;4.00;;;;;;;;;;5024574;28;20199;-38
2022/05/05 01:33:40;;;;;;;5.53;4.43;;;;;;;;;;5030673;28;20226;-36
2022/05/05 01:36:08;;;;;;;4.57;4.10;;;;;;;;;;5014076;28;20242;-41
2022/05/05 01:38:37;;;;;;;6.33;4.50;;;;;;;;;;5020833;28;20214;-36
2022/05/05 01:41:04;;;;;;;4.63;4.23;;;;;;;;;;5011574;28;20211;-35
2022/05/05 01:43:32;;;;;;;8.27;5.03;;;;;;;;;;5020522;28;20196;-39
2022/05/05 01:45:59;;;;;;;5.03;4.63;;;;;;;;;;5020614;28;20220;-36
2022/05/05 01:48:26;;;;;;;3.97;3.63;;;;;;;;;;5012821;28;20234;-34
2022/05/05 01:50:53;;;;;;;5.40;4.53;;;;;;;;;;5015067;28;20213;-40
2022/05/05 01:53:20;;;;;;;4.70;4.30;;;;;;;;;;5022793;28;20229;-33
2022/05/05 01:55:49;;;;;;;5.27;4.77;;;;;;;;;;5019855;28;20273;-38
2022/05/05 01:58:19;;;;;;;5.03;4.47;;;;;;;;;;5017195;28;20232;-41
2022/05/05 02:00:46;;;;;;;4.50;4.10;;;;;;;;;;5020445;28;20202;-35
2022/05/05 02:03:13;;;;;;;6.17;4.87;;;;;;;;;;5026754;28;20199;-39
2022/05/05 02:05:41;;;;;;;5.27;4.77;;;;;;;;;;5017375;28;20240;-35
2022/05/05 02:08:11;;;;;;;5.70;5.20;;;;;;;;;;5026956;28;20207;-33
2022/05/05 02:10:39;;;;;;;5.03;4.53;;;;;;;;;;5010630;28;20204;-37
2022/05/05 02:13:09;;;;;;;5.37;4.67;;;;;;;;;;5019811;28;20218;-40
2022/05/05 02:15:36;;;;;;;5.63;4.50;;;;;;;;;;5031680;28;20226;-33
2022/05/05 02:18:10;;;;;;;4.67;4.20;;;;;;;;;;5032743;28;20212;-35
2022/05/05 02:20:38;;;;;;;4.40;4.00;;;;;;;;;;5024403;28;20262;-39
2022/05/05 02:23:05;;;;;;;7.03;4.40;;;;;;;;;;5031558;28;20202;-42
2022/05/05 02:25:33;;;;;;;4.83;4.37;;;;;;;;;;5029604;28;20292;-38
2022/05/05 02:28:00;;;;;;;5.77;4.63;;;;;;;;;;5017903;28;20207;-39
2022/05/05 02:30:29;;;;;;;5.47;4.40;;;;;;;;;;5018548;28;20208;-35
2022/05/05 02:32:56;;;;;;;4.53;4.13;;;;;;;;;;5014256;28;20211;-35
2022/05/05 02:35:23;;;;;;;5.57;3.83;;;;;;;;;;5019690;28;20298;-40
2022/05/05 02:40:36;;;;;;;5.73;4.40;;;;;;;;;;5011808;28;20250;-39
2022/05/05 02:43:04;;;;;;;5.43;4.93;;;;;;;;;;5021194;28;20203;-34
2022/05/05 02:45:32;;;;;;;5.27;4.47;;;;;;;;;;5012623;28;20219;-40
2022/05/05 02:48:00;;;;;;;5.23;4.23;;;;;;;;;;5013028;28;20199;-34
2022/05/05 02:50:28;;;;;;;4.87;4.33;;;;;;;;;;5014756;28;20203;-35
2022/05/05 02:52:55;;;;;;;5.47;4.93;;;;;;;;;;5027427;28;20235;-39
2022/05/05 02:55:21;;;;;;;4.93;4.53;;;;;;;;;;5030656;28;20307;-39
2022/05/05 02:57:49;;;;;;;4.57;4.17;;;;;;;;;;5026790;28;20227;-37
2022/05/05 03:00:16;;;;;;;6.00;4.80;;;;;;;;;;5016793;28;20216;-38
2022/05/05 03:02:45;;;;;;;5.63;5.07;;;;;;;;;;5029037;28;20203;-35
2022/05/05 03:05:13;;;;;;;5.57;5.07;;;;;;;;;;5022649;28;20207;-37
2022/05/05 03:07:41;;;;;;;5.73;4.57;;;;;;;;;;5011894;28;20256;-39
2022/05/05 03:10:09;;;;;;;5.50;4.90;;;;;;;;;;5030444;28;20208;-36
2022/05/05 03:12:36;;;;;;;5.07;4.50;;;;;;;;;;5015039;28;20208;-40
2022/05/05 03:15:04;;;;;;;6.10;4.93;;;;;;;;;;5016836;28;20243;-34
2022/05/05 03:17:31;;;;;;;5.77;4.60;;;;;;;;;;5010926;28;20204;-38
2022/05/05 03:20:00;;;;;;;5.60;4.83;;;;;;;;;;5013758;28;20207;-32
2022/05/05 03:22:27;;;;;;;5.13;4.63;;;;;;;;;;5019593;28;20208;-38
2022/05/05 03:24:54;;;;;;;5.30;4.80;;;;;;;;;;5010480;28;20227;-39
2022/05/05 03:27:21;;;;;;;7.33;4.40;;;;;;;;;;5017640;28;20207;-38
2022/05/05 03:29:49;;;;;;;6.03;4.50;;;;;;;;;;5011776;28;20204;-36
2022/05/05 03:32:16;;;;;;;5.33;4.83;;;;;;;;;;5024433;28;20203;-39
2022/05/05 03:34:43;;;;;;;5.13;4.50;;;;;;;;;;5023479;28;20221;-36
2022/05/05 03:37:12;;;;;;;5.97;4.97;;;;;;;;;;5030153;28;20226;-38
2022/05/05 03:39:39;;;;;;;4.87;4.47;;;;;;;;;;5030192;28;20202;-37
2022/05/05 03:42:07;;;;;;;6.50;4.43;;;;;;;;;;5021167;28;20239;-33
2022/05/05 03:44:34;;;;;;;5.60;5.10;;;;;;;;;;5026522;28;20202;-35
2022/05/05 03:47:01;;;;;;;5.30;4.80;;;;;;;;;;5022515;28;20502;-34
2022/05/05 03:49:28;;;;;;;5.43;4.93;;;;;;;;;;5025940;28;20206;-36
2022/05/05 03:51:56;;;;;;;4.57;4.17;;;;;;;;;;5020894;28;20203;-38
2022/05/05 03:54:25;;;;;;;7.57;5.17;;;;;;;;;;5022859;28;20228;-35
2022/05/05 03:56:52;;;;;;;5.67;5.00;;;;;;;;;;5015019;28;20234;-37
2022/05/05 03:59:20;;;;;;;9.03;8.17;;;;;;;;;;5023394;28;20211;-41
2022/05/05 04:01:47;;;;;;;5.57;4.97;;;;;;;;;;5021486;28;20688;-33
2022/05/05 04:04:15;;;;;;;6.17;5.00;;;;;;;;;;5027512;28;20206;-35
2022/05/05 04:06:43;;;;;;;4.87;4.43;;;;;;;;;;5018252;28;20258;-36
2022/05/05 04:09:10;;;;;;;7.37;5.10;;;;;;;;;;5025019;28;20214;-33
2022/05/05 04:11:39;;;;;;;6.33;5.20;;;;;;;;;;5028956;28;20206;-39
2022/05/05 04:14:09;;;;;;;5.30;4.80;;;;;;;;;;5012461;28;20234;-36
2022/05/05 04:16:37;;;;;;;5.07;4.50;;;;;;;;;;5020421;28;20477;-36
2022/05/05 04:19:04;;;;;;;6.67;4.60;;;;;;;;;;5013981;28;20198;-34
2022/05/05 04:21:32;;;;;;;7.03;5.43;;;;;;;;;;5019147;28;20218;-39
2022/05/05 04:23:59;;;;;;;6.73;4.73;;;;;;;;;;5024908;28;20210;-38
2022/05/05 04:26:27;;;;;;;5.80;5.20;;;;;;;;;;5020126;28;20672;-33
2022/05/05 04:28:57;;;;;;;5.53;5.03;;;;;;;;;;5024056;28;20216;-36
2022/05/05 04:31:25;;;;;;;5.70;5.07;;;;;;;;;;5031229;28;20191;-35
2022/05/05 04:33:52;;;;;;;6.40;5.63;;;;;;;;;;5035358;28;20209;-35
2022/05/05 04:36:25;;;;;;;5.90;5.30;;;;;;;;;;5032147;28;20233;-35
2022/05/05 04:38:52;;;;;;;6.47;5.87;;;;;;;;;;5024908;28;20203;-38
2022/05/05 04:41:36;;;;;;;7.53;6.30;;;;;;;;;;5020589;28;20242;-34
2022/05/05 04:44:04;;;;;;;8.83;6.47;;;;;;;;;;5018964;28;20203;-34
2022/05/05 04:46:31;;;;;;;6.43;5.83;;;;;;;;;;5027580;28;20233;-38
2022/05/05 04:48:58;;;;;;;7.40;6.50;;;;;;;;;;5016746;28;20208;-37
2022/05/05 04:51:26;;;;;;;6.97;6.27;;;;;;;;;;5034396;28;20207;-37
2022/05/05 04:53:53;;;;;;;7.60;6.87;;;;;;;;;;5033155;28;20199;-42
2022/05/05 04:56:20;;;;;;;7.73;6.93;;;;;;;;;;5022747;28;20226;-39
2022/05/05 04:58:47;;;;;;;8.10;7.27;;;;;;;;;;5027501;28;20214;-38
2022/05/05 05:01:15;;;;;;;8.63;7.07;;;;;;;;;;5030078;28;20217;-38
2022/05/05 05:03:43;;;;;;;8.37;6.57;;;;;;;;;;5032157;28;20221;-36
2022/05/05 05:06:10;;;;;;;7.27;6.57;;;;;;;;;;5032399;28;20228;-41
2022/05/05 05:08:38;;;;;;;8.13;6.43;;;;;;;;;;5024530;28;20207;-39
2022/05/05 05:11:05;;;;;;;13.27;8.70;;;;;;;;;;5029268;28;20207;-36
2022/05/05 05:13:32;;;;;;;10.60;8.60;;;;;;;;;;5026904;28;20207;-34
2022/05/05 05:15:59;;;;;;;9.80;7.57;;;;;;;;;;5027992;28;20227;-37
2022/05/05 05:18:30;;;;;;;7.80;6.73;;;;;;;;;;5022530;28;20208;-37
2022/05/05 05:20:58;;;;;;;6.60;5.87;;;;;;;;;;5023210;28;20310;-35
2022/05/05 05:23:25;;;;;;;8.00;6.37;;;;;;;;;;5023220;28;20249;-38
2022/05/05 05:25:52;;;;;;;11.97;9.17;;;;;;;;;;5029883;28;20223;-34
2022/05/05 05:28:19;;;;;;;12.70;9.40;;;;;;;;;;5029273;28;20294;-38
2022/05/05 05:30:46;;;;;;;12.70;7.80;;;;;;;;;;5026490;28;20203;-38
2022/05/05 05:33:13;;;;;;;10.40;7.80;;;;;;;;;;5034703;28;20210;-39
2022/05/05 05:35:42;;;;;;;10.40;8.00;;;;;;;;;;5029433;28;20261;-39
2022/05/05 05:38:11;;;;;;;12.07;8.57;;;;;;;;;;5018911;28;20203;-34
2022/05/05 05:40:38;;;;;;;9.50;8.50;;;;;;;;;;5020658;28;20205;-40
2022/05/05 05:43:05;;;;;;;9.63;7.97;;;;;;;;;;5020639;28;20286;-34
2022/05/05 05:45:33;;;;;;;9.70;7.83;;;;;;;;;;5025194;28;20223;-35
2022/05/05 05:48:00;;;;;;;7.43;5.80;;;;;;;;;;5020019;28;20207;-38
2022/05/05 05:50:28;;;;;;;7.70;6.03;;;;;;;;;;5026255;28;20207;-34
2022/05/05 05:52:57;;;;;;;8.83;6.73;;;;;;;;;;5021318;28;20199;-36
2022/05/05 05:55:24;;;;;;;9.10;6.90;;;;;;;;;;5030511;28;20233;-35
2022/05/05 05:57:51;;;;;;;8.30;7.40;;;;;;;;;;5020794;28;20207;-39
2022/05/05 06:00:28;;;;;;;8.97;7.87;;;;;;;;;;5025771;28;20242;-38
2022/05/05 06:05:42;;;;;;;7.50;6.70;;;;;;;;;;5029725;28;20360;-35
2022/05/05 06:08:11;;;;;;;7.67;6.90;;;;;;;;;;5019280;28;20273;-36
2022/05/05 06:10:39;;;;;;;7.93;7.13;;;;;;;;;;5022655;28;20191;-33
2022/05/05 06:13:06;;;;;;;8.57;7.47;;;;;;;;;;5022354;28;20286;-33
2022/05/05 06:15:33;;;;;;;9.30;7.90;;;;;;;;;;5024138;28;20230;-35
2022/05/05 06:18:01;;;;;;;7.80;7.00;;;;;;;;;;5021212;28;20222;-38
2022/05/05 06:20:28;;;;;;;7.80;7.03;;;;;;;;;;5022734;28;20329;-38
2022/05/05 06:22:55;;;;;;;8.60;7.47;;;;;;;;;;5021034;28;20203;-35
2022/05/05 06:25:24;;;;;;;11.10;8.47;;;;;;;;;;5028891;28;20230;-32
2022/05/05 06:27:52;;;;;;;8.10;7.03;;;;;;;;;;5028091;28;20218;-39
2022/05/05 06:30:19;;;;;;;11.33;8.87;;;;;;;;;;5021855;28;20199;-39
2022/05/05 06:32:46;;;;;;;11.97;8.90;;;;;;;;;;5032783;28;20206;-33
2022/05/05 06:35:14;;;;;;;12.50;8.13;;;;;;;;;;5033321;28;20225;-41
2022/05/05 06:37:41;;;;;;;10.63;8.40;;;;;;;;;;5028303;28;20289;-37
2022/05/05 06:40:08;;;;;;;10.43;8.07;;;;;;;;;;5021772;28;20195;-39
2022/05/05 06:42:37;;;;;;;9.23;8.00;;;;;;;;;;5020090;28;20209;-38
2022/05/05 06:45:06;;;;;;;8.13;7.30;;;;;;;;;;5021092;28;20230;-36
2022/05/05 06:47:33;;;;;;;9.27;8.33;;;;;;;;;;5029974;28;20210;-34
2022/05/05 06:50:06;;;;;;;8.50;7.67;;;;;;;;;;5025428;28;20214;-41
2022/05/05 06:52:33;;;;;;;9.43;8.13;;;;;;;;;;5016552;28;20195;-39
2022/05/05 06:55:01;;;;;;;8.33;7.13;;;;;;;;;;5032628;28;20230;-39
2022/05/05 06:57:29;;;;;;;8.40;7.60;;;;;;;;;;5027745;28;20207;-40
2022/05/05 06:59:57;;;;;;;9.57;7.70;;;;;;;;;;5024401;28;20282;-38
2022/05/05 07:02:24;;;;;;;10.77;7.90;;;;;;;;;;5032858;28;20213;-31
2022/05/05 07:07:36;;;;;;;8.87;7.57;;;;;;;;;;5020033;28;20253;-38
2022/05/05 07:12:48;;;;;;;9.70;8.70;;;;;;;;;;5019927;28;20290;-39
2022/05/05 07:15:16;;;;;;;9.63;8.37;;;;;;;;;;5016555;28;20232;-42
2022/05/05 07:17:44;;;;;;;12.20;7.97;;;;;;;;;;5014200;28;20291;-37
2022/05/05 07:20:11;;;;;;;10.20;8.17;;;;;;;;;;5015632;28;20203;-35
2022/05/05 07:22:38;;;;;;;9.50;7.80;;;;;;;;;;5024703;28;20234;-39
2022/05/05 07:25:06;;;;;;;10.10;8.43;;;;;;;;;;5032134;28;20253;-38
2022/05/05 07:27:33;;;;;;;8.50;7.63;;;;;;;;;;5021908;28;20206;-36
2022/05/05 07:30:00;;;;;;;9.50;8.40;;;;;;;;;;5012309;28;20211;-32
2022/05/05 07:32:28;;;;;;;9.50;7.40;;;;;;;;;;5028823;28;20217;-36
2022/05/05 07:34:55;;;;;;;8.83;7.37;;;;;;;;;;5024992;28;20226;-34
2022/05/05 07:37:23;;;;;;;11.20;8.97;;;;;;;;;;5014392;28;20257;-36
2022/05/05 07:39:50;;;;;;;9.27;7.90;;;;;;;;;;5022088;28;20203;-36
2022/05/05 07:42:17;;;;;;;8.93;7.37;;;;;;;;;;5024178;28;20208;-35
2022/05/05 07:44:44;;;;;;;8.77;7.80;;;;;;;;;;5021267;28;20220;-34
2022/05/05 07:47:11;;;;;;;9.97;8.00;;;;;;;;;;5020127;28;20227;-35
2022/05/05 07:49:39;;;;;;;8.60;7.80;;;;;;;;;;5030599;28;20212;-34
2022/05/05 07:52:07;;;;;;;8.77;7.87;;;;;;;;;;5013340;28;20206;-39
2022/05/05 07:54:42;;;;;;;8.63;7.73;;;;;;;;;;5012349;28;20203;-36
2022/05/05 07:57:10;;;;;;;8.23;7.40;;;;;;;;;;5018372;28;20279;-36
2022/05/05 07:59:37;;;;;;;8.83;7.77;;;;;;;;;;5020866;28;20305;-31
2022/05/05 08:02:08;;;;;;;9.20;7.67;;;;;;;;;;5016291;28;20214;-34
2022/05/05 08:04:35;;;;;;;8.13;7.30;;;;;;;;;;5022080;28;20203;-37
2022/05/05 08:07:03;;;;;;;8.47;7.67;;;;;;;;;;5027490;28;20227;-33
2022/05/05 08:09:32;;;;;;;9.00;7.57;;;;;;;;;;5019917;28;20199;-36
2022/05/05 08:12:00;;;;;;;10.63;8.80;;;;;;;;;;5020663;28;20203;-35
2022/05/05 08:14:27;;;;;;;8.43;7.50;;;;;;;;;;5031688;28;20206;-33
2022/05/05 08:16:55;;;;;;;9.60;8.10;;;;;;;;;;5027590;28;20235;-35
2022/05/05 08:19:22;;;;;;;9.50;8.13;;;;;;;;;;5036241;28;20275;-33
2022/05/05 08:21:49;;;;;;;9.20;7.57;;;;;;;;;;5019167;28;20209;-39
2022/05/05 08:29:48;;;;;;;7.67;6.87;;;;;;;;;;5019329;28;20317;-34
2022/05/05 08:32:15;;;;;;;8.83;7.93;;;;;;;;;;5021623;28;20203;-33
2022/05/05 08:34:42;;;;;;;8.30;7.40;;;;;;;;;;5019964;28;20206;-29
2022/05/05 08:37:09;;;;;;;9.00;7.33;;;;;;;;;;5026542;28;20225;-31
2022/05/05 08:39:38;;;;;;;10.00;7.67;;;;;;;;;;5018122;28;20223;-33
2022/05/05 08:42:06;;;;;;;10.20;7.33;;;;;;;;;;5021325;28;20282;-33
2022/05/05 08:44:33;;;;;;;8.00;7.20;;;;;;;;;;5018581;28;20212;-34
2022/05/05 08:47:00;;;;;;;9.33;8.30;;;;;;;;;;5023229;28;20277;-38
2022/05/05 08:49:27;;;;;;;9.23;8.13;;;;;;;;;;5014759;28;20228;-36
2022/05/05 08:51:55;;;;;;;12.30;8.23;;;;;;;;;;5018233;28;20227;-34
2022/05/05 08:54:25;;;;;;;12.97;8.20;;;;;;;;;;5027391;28;20203;-30
2022/05/05 08:56:54;;;;;;;11.27;8.63;;;;;;;;;;5022058;28;20234;-32
2022/05/05 08:59:22;;;;;;;10.60;8.03;;;;;;;;;;5026841;28;20213;-42
2022/05/05 09:01:51;;;;;;;8.93;8.00;;;;;;;;;;5024443;28;20203;-34
2022/05/05 09:04:18;;;;;;;10.93;8.97;;;;;;;;;;5024028;28;20382;-31
2022/05/05 09:06:47;;;;;;;13.73;8.10;;;;;;;;;;5026393;28;20283;-31
2022/05/05 09:09:33;;;;;;;9.83;8.03;;;;;;;;;;5032356;28;20208;-37
2022/05/05 09:12:23;;;;;;;10.60;8.47;;;;;;;;;;5023601;28;20207;-36
2022/05/05 09:14:53;;;;;;;11.67;8.77;;;;;;;;;;5028465;28;20237;-37
2022/05/05 09:17:20;;;;;;;9.80;8.07;;;;;;;;;;5029882;28;20237;-32
2022/05/05 09:19:48;;;;;;;10.10;9.10;;;;;;;;;;5030691;28;20204;-33
2022/05/05 09:22:16;;;;;;;10.10;8.50;;;;;;;;;;5027305;28;20204;-32
2022/05/05 09:24:44;;;;;;;11.57;9.00;;;;;;;;;;5032184;28;20211;-35
2022/05/05 09:27:19;;;;;;;9.93;8.57;;;;;;;;;;5031962;28;20241;-34
2022/05/05 09:30:00;;;;;;;10.73;9.33;;;;;;;;;;5023690;28;20201;-33
2022/05/05 09:32:28;;;;;;;11.47;9.20;;;;;;;;;;5014958;28;20206;-36
2022/05/05 09:34:59;;;;;;;12.23;9.23;;;;;;;;;;5019234;28;20203;-33
2022/05/05 09:37:26;;;;;;;12.47;8.97;;;;;;;;;;5028660;28;20227;-34
2022/05/05 09:39:57;;;;;;;10.50;8.70;;;;;;;;;;5015382;28;20265;-31
2022/05/05 09:42:41;;;;;;;12.00;9.70;;;;;;;;;;5025334;28;20204;-34
2022/05/05 09:45:20;;;;;;;12.43;9.53;;;;;;;;;;5025909;28;20734;-32
2022/05/05 09:47:48;;;;;;;8.97;8.07;;;;;;;;;;5016071;28;20204;-39
2022/05/05 09:50:19;;;;;;;12.37;9.00;;;;;;;;;;5014248;28;20200;-33
2022/05/05 09:58:17;;;;;;;18.27;9.27;;;;;;;;;;5022343;28;20218;-38
2022/05/05 10:00:49;;;;;;;14.73;9.90;;;;;;;;;;5016016;28;20229;-30
2022/05/05 10:06:03;;;;;;;12.23;10.03;;;;;;;;;;5028012;28;20226;-37
2022/05/05 10:08:35;;;;;;;14.47;10.33;;;;;;;;;;5024148;28;20207;-33
2022/05/05 10:11:03;;;;;;;13.07;9.97;;;;;;;;;;5022256;28;20215;-36
2022/05/05 10:13:31;;;;;;;11.90;10.47;;;;;;;;;;5022013;28;20215;-32
2022/05/05 10:16:01;;;;;;;14.30;10.43;;;;;;;;;;5014491;28;20223;-31
2022/05/05 10:18:28;;;;;;;11.23;9.73;;;;;;;;;;5014456;28;20207;-29
2022/05/05 10:20:57;;;;;;;11.30;10.13;;;;;;;;;;5013449;28;20229;-31
2022/05/05 10:23:29;;;;;;;13.60;10.60;;;;;;;;;;5028966;28;20209;-29
2022/05/05 10:25:57;;;;;;;13.03;9.53;;;;;;;;;;5030350;28;20311;-33
2022/05/05 10:28:44;;;;;;;12.07;10.03;;;;;;;;;;5021463;28;20207;-35
2022/05/05 10:31:13;;;;;;;12.27;10.43;;;;;;;;;;5025644;28;20241;-35
2022/05/05 10:33:59;;;;;;;11.50;9.70;;;;;;;;;;5033779;28;20202;-33
2022/05/05 10:36:27;;;;;;;15.07;10.97;;;;;;;;;;5020484;28;20249;-33
2022/05/05 10:38:54;;;;;;;13.53;10.77;;;;;;;;;;5021651;28;20269;-38
2022/05/05 10:41:45;;;;;;;12.27;9.70;;;;;;;;;;5015538;28;20210;-31
2022/05/05 10:44:26;;;;;;;12.03;9.90;;;;;;;;;;5011978;28;20246;-39
2022/05/05 10:46:59;;;;;;;13.20;10.20;;;;;;;;;;5022244;28;20251;-36
2022/05/05 10:49:45;;;;;;;11.33;10.13;;;;;;;;;;5014213;28;20211;-36
2022/05/05 10:52:28;;;;;;;11.40;10.10;;;;;;;;;;5027450;28;20264;-33
2022/05/05 10:54:57;;;;;;;11.53;10.23;;;;;;;;;;5021330;28;20210;-34
2022/05/05 10:57:44;;;;;;;16.10;10.57;;;;;;;;;;5015853;28;20231;-31
2022/05/05 11:00:12;;;;;;;12.50;10.30;;;;;;;;;;5019082;28;20203;-34
2022/05/05 11:02:41;;;;;;;13.50;10.93;;;;;;;;;;5013508;28;20200;-31
2022/05/05 11:05:24;;;;;;;13.00;10.33;;;;;;;;;;5018605;28;20203;-35
2022/05/05 11:07:51;;;;;;;12.80;10.40;;;;;;;;;;5028570;28;20219;-29
2022/05/05 11:10:37;;;;;;;11.00;9.93;;;;;;;;;;5013127;28;20208;-32
2022/05/05 11:13:04;;;;;;;13.00;10.80;;;;;;;;;;5021142;28;20213;-34
2022/05/05 11:23:59;;;;;;;12.80;11.40;;;;;;;;;;5021771;28;20195;-35
2022/05/05 11:26:26;;;;;;;16.20;11.37;;;;;;;;;;5012252;28;20223;-34
2022/05/05 11:28:55;;;;;;;13.87;10.73;;;;;;;;;;5019430;28;20211;-33
2022/05/05 11:31:24;;;;;;;12.30;11.10;;;;;;;;;;5020420;28;20199;-34
2022/05/05 11:33:54;;;;;;;15.07;10.97;;;;;;;;;;5013246;28;20226;-33
2022/05/05 11:36:21;;;;;;;12.07;10.47;;;;;;;;;;5014453;28;20227;-34
2022/05/05 11:38:49;;;;;;;12.07;10.23;;;;;;;;;;5031233;28;20194;-38
2022/05/05 11:41:19;;;;;;;11.27;10.07;;;;;;;;;;5029379;28;20206;-39
2022/05/05 11:46:31;;;;;;;14.50;11.00;;;;;;;;;;5020602;28;20296;-32
2022/05/05 11:49:00;;;;;;;12.03;10.77;;;;;;;;;;5032500;28;20208;-36
2022/05/05 11:51:28;;;;;;;15.80;11.40;;;;;;;;;;5025643;28;20198;-32
2022/05/05 11:53:59;;;;;;;14.33;11.67;;;;;;;;;;5019054;28;20197;-36
2022/05/05 11:56:26;;;;;;;13.83;10.37;;;;;;;;;;5015136;28;20319;-34
2022/05/05 12:01:45;;;;;;;12.90;11.20;;;;;;;;;;4977273;28;20274;-32
2022/05/05 12:04:14;;;;;;;14.67;11.47;;;;;;;;;;5011577;28;20213;-34
2022/05/05 12:06:42;;;;;;;15.47;11.57;;;;;;;;;;5019529;28;20214;-40
2022/05/05 12:09:09;;;;;;;13.77;11.43;;;;;;;;;;5023543;28;20199;-36
2022/05/05 12:11:37;;;;;;;15.87;11.50;;;;;;;;;;5026565;28;20234;-35
2022/05/05 12:14:06;;;;;;;15.27;12.43;;;;;;;;;;5019988;28;20199;-36
2022/05/05 12:16:35;;;;;;;14.67;12.70;;;;;;;;;;5020467;28;20323;-38
2022/05/05 12:19:02;;;;;;;12.40;10.97;;;;;;;;;;5028707;28;20211;-33
2022/05/05 12:21:31;;;;;;;15.40;11.23;;;;;;;;;;5006791;28;20279;-37
2022/05/05 12:24:00;;;;;;;13.70;11.00;;;;;;;;;;5017309;28;20488;-38
2022/05/05 12:26:32;;;;;;;14.17;12.10;;;;;;;;;;5023548;28;20226;-33
2022/05/05 12:28:59;;;;;;;15.07;10.87;;;;;;;;;;5008502;28;20211;-38
2022/05/05 12:31:28;;;;;;;13.07;10.97;;;;;;;;;;5016645;28;20204;-32
2022/05/05 12:33:56;;;;;;;14.00;11.73;;;;;;;;;;5008557;28;20214;-39
2022/05/05 12:36:27;;;;;;;15.13;12.87;;;;;;;;;;5011385;28;20254;-37
2022/05/05 12:39:09;;;;;;;15.70;11.60;;;;;;;;;;5011932;28;20354;-33
2022/05/05 12:41:38;;;;;;;17.50;12.00;;;;;;;;;;5007492;28;20215;-38
2022/05/05 12:44:09;;;;;;;17.47;12.40;;;;;;;;;;5020092;28;20207;-36
2022/05/05 12:46:36;;;;;;;19.80;12.30;;;;;;;;;;5010708;28;20221;-34
2022/05/05 12:49:04;;;;;;;18.47;12.67;;;;;;;;;;5012439;28;20216;-33
2022/05/05 12:51:34;;;;;;;13.20;10.40;;;;;;;;;;5013830;28;20205;-37
2022/05/05 12:59:40;;;;;;;13.97;9.60;;;;;;;;;;5020367;28;20242;-39
2022/05/05 13:02:07;;;;;;;12.60;10.33;;;;;;;;;;5031668;28;20295;-36
2022/05/05 13:04:35;;;;;;;12.63;9.93;;;;;;;;;;5031638;28;20216;-32
2022/05/05 13:07:02;;;;;;;13.03;10.83;;;;;;;;;;5024413;28;20220;-34
2022/05/05 13:09:29;;;;;;;11.20;9.50;;;;;;;;;;5015697;28;20221;-38
2022/05/05 13:11:58;;;;;;;10.73;9.60;;;;;;;;;;5020427;28;20215;-36
2022/05/05 13:14:25;;;;;;;13.67;9.93;;;;;;;;;;5019475;28;20264;-32
2022/05/05 13:16:52;;;;;;;11.77;10.20;;;;;;;;;;5023856;28;20233;-37
2022/05/05 13:19:20;;;;;;;12.63;11.27;;;;;;;;;;5026927;28;20210;-34
2022/05/05 13:21:47;;;;;;;13.20;10.67;;;;;;;;;;5016106;28;20222;-35
2022/05/05 13:24:15;;;;;;;11.00;9.90;;;;;;;;;;5017770;28;20206;-38
2022/05/05 13:26:44;;;;;;;12.07;10.83;;;;;;;;;;5011670;28;20231;-36
2022/05/05 13:29:13;;;;;;;9.80;8.90;;;;;;;;;;5017064;28;20200;-33
2022/05/05 13:31:40;;;;;;;11.50;10.30;;;;;;;;;;5024685;28;20214;-32
2022/05/05 13:34:08;;;;;;;12.93;10.60;;;;;;;;;;5030383;28;20207;-39
2022/05/05 13:36:36;;;;;;;12.17;10.50;;;;;;;;;;5018365;28;20231;-31
2022/05/05 13:39:05;;;;;;;12.20;10.43;;;;;;;;;;5023971;28;20232;-35
2022/05/05 13:41:32;;;;;;;10.73;9.63;;;;;;;;;;5022340;28;20213;-38
2022/05/05 13:43:59;;;;;;;11.70;10.00;;;;;;;;;;5027593;28;20207;-33
2022/05/05 13:46:28;;;;;;;10.63;9.53;;;;;;;;;;5014990;28;20215;-40
2022/05/05 13:48:56;;;;;;;12.53;9.33;;;;;;;;;;5012120;28;20238;-37
2022/05/05 13:51:23;;;;;;;11.47;9.53;;;;;;;;;;5013694;28;20288;-37
2022/05/05 13:53:50;;;;;;;14.13;10.73;;;;;;;;;;5027245;28;20206;-35
2022/05/05 13:56:18;;;;;;;13.03;10.80;;;;;;;;;;5011639;28;20221;-36
2022/05/05 13:58:45;;;;;;;11.87;10.07;;;;;;;;;;5011420;28;20240;-31
2022/05/05 14:01:12;;;;;;;12.90;10.03;;;;;;;;;;5015446;28;20199;-33
2022/05/05 14:03:40;;;;;;;12.00;10.33;;;;;;;;;;5031243;28;20214;-34
2022/05/05 14:06:07;;;;;;;15.17;9.97;;;;;;;;;;5024799;28;20218;-31
2022/05/05 14:14:04;;;;;;;15.07;12.17;;;;;;;;;;5022560;28;20210;-35
2022/05/05 14:16:32;;;;;;;14.33;10.77;;;;;;;;;;5021759;28;20220;-31
2022/05/05 14:19:00;;;;;;;15.77;12.83;;;;;;;;;;5028969;28;20231;-32
2022/05/05 14:21:27;;;;;;;15.10;12.10;;;;;;;;;;5020992;28;20444;-34
2022/05/05 14:23:54;;;;;;;12.73;11.30;;;;;;;;;;5013185;28;20214;-38
2022/05/05 14:26:21;;;;;;;14.10;11.63;;;;;;;;;;5025766;28;20233;-35
2022/05/05 14:28:49;;;;;;;15.70;11.93;;;;;;;;;;5019714;28;20202;-30
2022/05/05 14:31:16;;;;;;;14.17;12.73;;;;;;;;;;5026292;28;20199;-30
2022/05/05 14:33:43;;;;;;;13.67;11.10;;;;;;;;;;5031584;28;20210;-36
2022/05/05 14:36:31;;;;;;;14.63;11.40;;;;;;;;;;5029939;28;20227;-36
2022/05/05 14:38:58;;;;;;;13.37;11.10;;;;;;;;;;5022594;28;20300;-32
2022/05/05 14:41:25;;;;;;;14.20;11.83;;;;;;;;;;5019382;28;20226;-35
2022/05/05 14:43:52;;;;;;;15.10;10.33;;;;;;;;;;5032328;28;20222;-31
2022/05/05 14:46:19;;;;;;;13.47;10.80;;;;;;;;;;5025836;28;20219;-39
2022/05/05 14:48:46;;;;;;;15.80;11.23;;;;;;;;;;5033522;28;20207;-31
2022/05/05 14:51:13;;;;;;;16.83;12.17;;;;;;;;;;5027243;28;20207;-31
2022/05/05 14:53:44;;;;;;;14.50;11.37;;;;;;;;;;5026103;28;20199;-35
2022/05/05 14:56:11;;;;;;;16.13;10.93;;;;;;;;;;5024216;28;20219;-31
2022/05/05 14:58:38;;;;;;;14.70;12.13;;;;;;;;;;5024082;28;20230;-32
2022/05/05 15:01:06;;;;;;;14.57;12.23;;;;;;;;;;5014246;28;20207;-32
2022/05/05 15:03:34;;;;;;;11.87;10.33;;;;;;;;;;5030991;28;20207;-33
2022/05/05 15:06:01;;;;;;;16.60;10.67;;;;;;;;;;5023202;28;20277;-32
2022/05/05 15:08:28;;;;;;;15.00;11.03;;;;;;;;;;5021293;28;20196;-38
2022/05/05 15:10:57;;;;;;;14.47;11.27;;;;;;;;;;5012962;28;20217;-31
2022/05/05 15:13:24;;;;;;;17.37;13.23;;;;;;;;;;5020378;28;20211;-33
2022/05/05 15:15:51;;;;;;;15.60;12.63;;;;;;;;;;5030302;28;20243;-34
2022/05/05 15:18:18;;;;;;;20.33;13.43;;;;;;;;;;5032490;28;20230;-32
2022/05/05 15:20:45;;;;;;;15.13;11.87;;;;;;;;;;5021855;28;20204;-31
2022/05/05 15:23:13;;;;;;;12.50;10.00;;;;;;;;;;5022011;28;20203;-37
2022/05/05 15:25:40;;;;;;;15.57;12.67;;;;;;;;;;5011892;28;20322;-33
2022/05/05 15:28:08;;;;;;;16.57;11.00;;;;;;;;;;5018869;28;20290;-38
2022/05/05 15:30:35;;;;;;;11.40;7.00;;;;;;;;;;5014700;28;20208;-31
2022/05/05 15:33:03;;;;;;;14.13;11.23;;;;;;;;;;5024461;28;20259;-29
2022/05/05 15:35:30;;;;;;;16.43;11.53;;;;;;;;;;5022215;28;20230;-36
2022/05/05 15:37:58;;;;;;;16.03;12.73;;;;;;;;;;5020714;28;20245;-37